createdAt,value
2017-06-21T20:20:51.101Z,40.60
2017-06-21T20:23:18.631Z,42.30
2017-06-21T20:25:46.178Z,43.50
2017-06-21T20:28:13.702Z,44.20
2017-06-21T20:30:41.269Z,44.70
2017-06-21T20:33:08.850Z,45.00
2017-06-21T20:35:36.330Z,45.20
2017-06-21T20:38:03.849Z,45.60
2017-06-21T20:40:31.361Z,45.90
2017-06-21T20:42:58.927Z,45.30
2017-06-21T20:45:26.469Z,45.40
2017-06-21T20:47:53.967Z,45.80
2017-06-21T20:50:21.461Z,46.20
2017-06-21T20:52:48.987Z,46.80
2017-06-21T20:55:16.473Z,47.60
2017-06-21T20:57:43.970Z,48.30
2017-06-21T21:00:11.485Z,48.20
2017-06-21T21:02:38.978Z,49.00
2017-06-21T21:05:06.494Z,48.10
2017-06-21T21:07:33.985Z,48.00
2017-06-21T21:10:01.495Z,48.40
2017-06-21T21:12:29.003Z,48.20
2017-06-21T21:14:56.519Z,48.00
2017-06-21T21:17:24.013Z,48.30
2017-06-21T21:19:51.522Z,47.40
2017-06-21T21:22:19.062Z,47.10
2017-06-21T21:24:46.591Z,47.00
2017-06-21T21:27:14.101Z,46.80
2017-06-21T21:29:41.597Z,46.70
2017-06-21T21:32:09.101Z,46.70
2017-06-21T21:34:36.582Z,46.60
2017-06-21T21:37:04.105Z,46.70
2017-06-21T21:39:31.586Z,46.70
2017-06-21T21:41:59.078Z,46.90
2017-06-21T21:44:26.597Z,47.00
2017-06-21T21:46:54.081Z,47.20
2017-06-21T21:49:21.581Z,47.30
2017-06-21T21:51:49.070Z,47.50
2017-06-21T21:54:16.573Z,47.50
2017-06-21T21:56:44.081Z,47.50
2017-06-21T21:59:11.598Z,47.80
2017-06-21T22:01:39.088Z,48.20
2017-06-21T22:04:06.574Z,48.30
2017-06-21T22:06:34.087Z,48.40
2017-06-21T22:09:01.573Z,48.80
2017-06-21T22:11:29.073Z,49.10
2017-06-21T22:13:56.569Z,49.40
2017-06-21T22:16:24.074Z,49.80
2017-06-21T22:18:51.566Z,50.10
2017-06-21T22:21:19.078Z,50.30
2017-06-21T22:23:46.562Z,50.60
2017-06-21T22:26:14.050Z,50.80
2017-06-21T22:28:41.549Z,51.00
2017-06-21T22:31:09.033Z,51.00
2017-06-21T22:33:36.537Z,51.10
2017-06-21T22:36:04.021Z,51.40
2017-06-21T22:38:31.525Z,51.60
2017-06-21T22:40:59.013Z,51.80
2017-06-21T22:43:26.513Z,52.00
2017-06-21T22:45:54.014Z,52.10
2017-06-21T22:48:21.496Z,52.30
2017-06-21T22:50:48.998Z,52.30
2017-06-21T22:53:16.491Z,52.30
2017-06-21T22:55:43.997Z,52.40
2017-06-21T22:58:11.482Z,52.50
2017-06-21T23:00:38.998Z,52.70
2017-06-21T23:03:06.481Z,52.80
2017-06-21T23:05:33.999Z,52.90
2017-06-21T23:08:01.481Z,53.00
2017-06-21T23:10:28.973Z,53.00
2017-06-21T23:12:56.473Z,53.00
2017-06-21T23:15:23.962Z,52.90
2017-06-21T23:17:51.462Z,53.00
2017-06-21T23:20:18.946Z,53.10
2017-06-21T23:22:46.427Z,53.20
2017-06-21T23:25:13.932Z,53.30
2017-06-21T23:27:41.431Z,53.50
2017-06-21T23:30:08.929Z,54.10
2017-06-21T23:32:36.423Z,53.60
2017-06-21T23:35:03.905Z,53.70
2017-06-21T23:37:31.409Z,53.70
2017-06-21T23:39:58.889Z,53.80
2017-06-21T23:42:26.394Z,54.00
2017-06-21T23:44:53.883Z,54.00
2017-06-21T23:47:21.374Z,53.90
2017-06-21T23:49:48.873Z,54.10
2017-06-21T23:52:16.358Z,54.20
2017-06-21T23:54:43.858Z,54.10
2017-06-21T23:57:11.361Z,54.20
2017-06-21T23:59:38.871Z,54.30
